sensor_id;sensor_type;location;lat;lon;timestamp;pressure;altitude;pressure_sealevel;temperature;humidity
37852;BME280;23691;52.486;4.650;2022-11-15T00:00:47;100820.25;;;7.63;80.79
37852;BME280;23691;52.486;4.650;2022-11-15T00:03:18;100810.25;;;7.65;81.04
37852;BME280;23691;52.486;4.650;2022-11-15T00:05:45;100812.25;;;7.63;81.15
37852;BME280;23691;52.486;4.650;2022-11-15T00:08:11;100815.88;;;7.62;81.16
37852;BME280;23691;52.486;4.650;2022-11-15T00:10:36;100807.06;;;7.62;81.55
37852;BME280;23691;52.486;4.650;2022-11-15T00:13:07;100809.03;;;7.60;81.76
37852;BME280;23691;52.486;4.650;2022-11-15T00:15:37;100810.56;;;7.62;81.71
37852;BME280;23691;52.486;4.650;2022-11-15T00:18:04;100808.72;;;7.63;81.90
37852;BME280;23691;52.486;4.650;2022-11-15T00:20:31;100814.91;;;7.63;81.92
37852;BME280;23691;52.486;4.650;2022-11-15T00:22:56;100817.41;;;7.65;81.96
37852;BME280;23691;52.486;4.650;2022-11-15T00:25:22;100806.06;;;7.63;82.33
37852;BME280;23691;52.486;4.650;2022-11-15T00:27:47;100808.72;;;7.63;82.41
37852;BME280;23691;52.486;4.650;2022-11-15T00:30:12;100815.88;;;7.62;82.67
37852;BME280;23691;52.486;4.650;2022-11-15T00:32:38;100820.06;;;7.65;82.71
37852;BME280;23691;52.486;4.650;2022-11-15T00:35:04;100804.66;;;7.68;82.74
37852;BME280;23691;52.486;4.650;2022-11-15T00:37:30;100809.16;;;7.68;82.63
37852;BME280;23691;52.486;4.650;2022-11-15T00:39:55;100806.63;;;7.66;83.11
37852;BME280;23691;52.486;4.650;2022-11-15T00:42:21;100798.34;;;7.69;83.19
37852;BME280;23691;52.486;4.650;2022-11-15T00:44:46;100793.84;;;7.70;83.29
37852;BME280;23691;52.486;4.650;2022-11-15T00:47:12;100784.59;;;7.74;83.50
37852;BME280;23691;52.486;4.650;2022-11-15T00:49:37;100783.44;;;7.77;83.67
37852;BME280;23691;52.486;4.650;2022-11-15T00:52:02;100773.50;;;7.79;83.46
37852;BME280;23691;52.486;4.650;2022-11-15T00:54:28;100776.84;;;7.81;83.46
37852;BME280;23691;52.486;4.650;2022-11-15T00:56:53;100782.00;;;7.82;83.44
37852;BME280;23691;52.486;4.650;2022-11-15T00:59:19;100786.50;;;7.82;83.52
37852;BME280;23691;52.486;4.650;2022-11-15T01:01:44;100777.53;;;7.83;83.57
37852;BME280;23691;52.486;4.650;2022-11-15T01:04:09;100778.50;;;7.82;83.59
37852;BME280;23691;52.486;4.650;2022-11-15T01:06:35;100777.53;;;7.83;83.86
37852;BME280;23691;52.486;4.650;2022-11-15T01:09:00;100777.25;;;7.86;84.13
37852;BME280;23691;52.486;4.650;2022-11-15T01:11:26;100770.09;;;7.86;83.82
37852;BME280;23691;52.486;4.650;2022-11-15T01:13:51;100777.25;;;7.86;84.20
37852;BME280;23691;52.486;4.650;2022-11-15T01:16:17;100774.72;;;7.84;84.29
37852;BME280;23691;52.486;4.650;2022-11-15T01:18:45;100778.22;;;7.85;84.18
37852;BME280;23691;52.486;4.650;2022-11-15T01:21:13;100773.56;;;7.87;84.53
37852;BME280;23691;52.486;4.650;2022-11-15T01:23:39;100781.88;;;7.84;84.59
37852;BME280;23691;52.486;4.650;2022-11-15T01:26:08;100778.38;;;7.83;84.57
37852;BME280;23691;52.486;4.650;2022-11-15T01:28:36;100761.94;;;7.88;84.75
37852;BME280;23691;52.486;4.650;2022-11-15T01:31:04;100766.97;;;7.91;84.86
37852;BME280;23691;52.486;4.650;2022-11-15T01:33:30;100751.00;;;7.91;84.70
37852;BME280;23691;52.486;4.650;2022-11-15T01:35:56;100754.78;;;7.88;84.90
37852;BME280;23691;52.486;4.650;2022-11-15T01:38:22;100746.63;;;7.90;85.03
37852;BME280;23691;52.486;4.650;2022-11-15T01:40:48;100756.00;;;7.94;85.29
37852;BME280;23691;52.486;4.650;2022-11-15T01:43:34;100758.53;;;7.95;85.16
37852;BME280;23691;52.486;4.650;2022-11-15T01:46:17;100762.19;;;7.94;85.34
37852;BME280;23691;52.486;4.650;2022-11-15T01:48:47;100751.53;;;7.94;85.46
37852;BME280;23691;52.486;4.650;2022-11-15T01:51:15;100749.72;;;7.95;85.31
37852;BME280;23691;52.486;4.650;2022-11-15T01:53:44;100733.72;;;7.95;85.75
37852;BME280;23691;52.486;4.650;2022-11-15T01:56:14;100732.88;;;7.94;85.45
37852;BME280;23691;52.486;4.650;2022-11-15T01:58:40;100727.72;;;7.93;85.73
37852;BME280;23691;52.486;4.650;2022-11-15T02:01:06;100727.25;;;7.98;85.51
37852;BME280;23691;52.486;4.650;2022-11-15T02:03:41;100727.25;;;7.98;85.65
37852;BME280;23691;52.486;4.650;2022-11-15T02:06:09;100728.94;;;7.99;85.76
37852;BME280;23691;52.486;4.650;2022-11-15T02:08:35;100712.81;;;8.00;85.77
37852;BME280;23691;52.486;4.650;2022-11-15T02:11:00;100717.13;;;8.01;85.81
37852;BME280;23691;52.486;4.650;2022-11-15T02:13:26;100711.94;;;8.00;85.94
37852;BME280;23691;52.486;4.650;2022-11-15T02:18:37;100701.97;;;8.02;86.08
37852;BME280;23691;52.486;4.650;2022-11-15T02:21:41;100695.38;;;8.06;86.11
37852;BME280;23691;52.486;4.650;2022-11-15T02:32:57;100683.13;;;8.13;85.83
37852;BME280;23691;52.486;4.650;2022-11-15T02:38:40;100677.59;;;8.14;86.44
37852;BME280;23691;52.486;4.650;2022-11-15T02:41:09;100681.41;;;8.12;86.01
37852;BME280;23691;52.486;4.650;2022-11-15T02:43:51;100674.13;;;8.14;86.19
37852;BME280;23691;52.486;4.650;2022-11-15T02:49:33;100660.78;;;8.14;85.99
37852;BME280;23691;52.486;4.650;2022-11-15T02:51:59;100660.09;;;8.12;86.37
37852;BME280;23691;52.486;4.650;2022-11-15T02:54:29;100656.47;;;8.13;86.28
37852;BME280;23691;52.486;4.650;2022-11-15T02:57:00;100653.47;;;8.16;86.38
37852;BME280;23691;52.486;4.650;2022-11-15T03:05:40;100651.38;;;8.20;86.50
37852;BME280;23691;52.486;4.650;2022-11-15T03:08:30;100644.34;;;8.18;86.47
37852;BME280;23691;52.486;4.650;2022-11-15T03:13:46;100645.03;;;8.21;86.94
37852;BME280;23691;52.486;4.650;2022-11-15T03:16:24;100643.75;;;8.25;86.98
37852;BME280;23691;52.486;4.650;2022-11-15T03:18:57;100645.41;;;8.26;86.99
37852;BME280;23691;52.486;4.650;2022-11-15T03:21:27;100640.91;;;8.26;87.11
37852;BME280;23691;52.486;4.650;2022-11-15T03:23:55;100640.59;;;8.29;87.09
37852;BME280;23691;52.486;4.650;2022-11-15T03:26:22;100637.78;;;8.31;86.89
37852;BME280;23691;52.486;4.650;2022-11-15T03:29:02;100642.97;;;8.32;87.07
37852;BME280;23691;52.486;4.650;2022-11-15T03:31:32;100633.28;;;8.31;87.07
37852;BME280;23691;52.486;4.650;2022-11-15T03:34:26;100640.31;;;8.32;87.08
37852;BME280;23691;52.486;4.650;2022-11-15T03:36:52;100627.81;;;8.33;87.34
37852;BME280;23691;52.486;4.650;2022-11-15T03:39:19;100633.66;;;8.36;87.48
37852;BME280;23691;52.486;4.650;2022-11-15T03:42:08;100625.41;;;8.40;87.83
37852;BME280;23691;52.486;4.650;2022-11-15T03:47:48;100619.75;;;8.43;87.83
37852;BME280;23691;52.486;4.650;2022-11-15T03:50:19;100623.94;;;8.45;87.88
37852;BME280;23691;52.486;4.650;2022-11-15T03:52:47;100625.31;;;8.49;87.96
37852;BME280;23691;52.486;4.650;2022-11-15T03:55:18;100619.47;;;8.54;87.83
37852;BME280;23691;52.486;4.650;2022-11-15T03:57:44;100616.50;;;8.57;87.84
37852;BME280;23691;52.486;4.650;2022-11-15T04:00:10;100609.19;;;8.59;88.03
37852;BME280;23691;52.486;4.650;2022-11-15T04:02:51;100609.03;;;8.60;88.22
37852;BME280;23691;52.486;4.650;2022-11-15T04:06:14;100605.06;;;8.65;88.16
37852;BME280;23691;52.486;4.650;2022-11-15T04:09:11;100605.06;;;8.65;88.25
37852;BME280;23691;52.486;4.650;2022-11-15T04:11:39;100612.72;;;8.68;88.38
37852;BME280;23691;52.486;4.650;2022-11-15T04:14:05;100609.75;;;8.71;88.59
37852;BME280;23691;52.486;4.650;2022-11-15T04:16:30;100604.13;;;8.74;88.38
37852;BME280;23691;52.486;4.650;2022-11-15T04:18:56;100604.75;;;8.76;88.55
37852;BME280;23691;52.486;4.650;2022-11-15T04:21:39;100608.94;;;8.78;88.63
37852;BME280;23691;52.486;4.650;2022-11-15T04:24:23;100606.97;;;8.80;88.70
37852;BME280;23691;52.486;4.650;2022-11-15T04:26:48;100604.84;;;8.84;88.79
37852;BME280;23691;52.486;4.650;2022-11-15T04:29:14;100599.16;;;8.87;88.87
37852;BME280;23691;52.486;4.650;2022-11-15T04:31:58;100595.34;;;8.90;88.95
37852;BME280;23691;52.486;4.650;2022-11-15T04:34:23;100593.19;;;8.93;88.92
37852;BME280;23691;52.486;4.650;2022-11-15T04:36:49;100603.72;;;8.95;89.01
37852;BME280;23691;52.486;4.650;2022-11-15T04:39:32;100599.72;;;8.99;89.04
37852;BME280;23691;52.486;4.650;2022-11-15T04:41:58;100608.25;;;9.02;89.27
37852;BME280;23691;52.486;4.650;2022-11-15T04:44:23;100605.09;;;9.07;89.30
37852;BME280;23691;52.486;4.650;2022-11-15T04:46:48;100609.28;;;9.10;89.30
37852;BME280;23691;52.486;4.650;2022-11-15T04:49:14;100610.63;;;9.14;89.34
37852;BME280;23691;52.486;4.650;2022-11-15T04:51:39;100598.81;;;9.16;89.59
37852;BME280;23691;52.486;4.650;2022-11-15T04:54:05;100595.81;;;9.19;89.46
37852;BME280;23691;52.486;4.650;2022-11-15T04:56:30;100606.00;;;9.24;89.66
37852;BME280;23691;52.486;4.650;2022-11-15T04:58:56;100601.34;;;9.26;89.86
37852;BME280;23691;52.486;4.650;2022-11-15T05:01:21;100605.34;;;9.30;90.06
37852;BME280;23691;52.486;4.650;2022-11-15T05:03:47;100607.72;;;9.33;90.15
37852;BME280;23691;52.486;4.650;2022-11-15T05:06:31;100603.69;;;9.37;90.20
37852;BME280;23691;52.486;4.650;2022-11-15T05:08:59;100594.22;;;9.43;90.47
37852;BME280;23691;52.486;4.650;2022-11-15T05:11:25;100586.69;;;9.46;90.55
37852;BME280;23691;52.486;4.650;2022-11-15T05:13:52;100589.22;;;9.48;90.72
37852;BME280;23691;52.486;4.650;2022-11-15T05:16:18;100588.88;;;9.51;90.68
37852;BME280;23691;52.486;4.650;2022-11-15T05:18:43;100597.56;;;9.53;90.95
37852;BME280;23691;52.486;4.650;2022-11-15T05:21:11;100584.91;;;9.55;90.80
37852;BME280;23691;52.486;4.650;2022-11-15T05:23:37;100594.41;;;9.58;91.05
37852;BME280;23691;52.486;4.650;2022-11-15T05:26:04;100588.75;;;9.61;91.09
37852;BME280;23691;52.486;4.650;2022-11-15T05:28:32;100594.91;;;9.61;90.83
37852;BME280;23691;52.486;4.650;2022-11-15T05:31:07;100593.06;;;9.62;91.23
37852;BME280;23691;52.486;4.650;2022-11-15T05:33:34;100598.09;;;9.65;91.40
37852;BME280;23691;52.486;4.650;2022-11-15T05:36:04;100597.78;;;9.68;91.44
37852;BME280;23691;52.486;4.650;2022-11-15T05:38:33;100586.06;;;9.69;91.33
37852;BME280;23691;52.486;4.650;2022-11-15T05:41:00;100597.28;;;9.73;91.47
37852;BME280;23691;52.486;4.650;2022-11-15T05:43:26;100602.28;;;9.76;91.49
37852;BME280;23691;52.486;4.650;2022-11-15T05:45:52;100604.81;;;9.77;91.59
37852;BME280;23691;52.486;4.650;2022-11-15T05:48:18;100606.31;;;9.80;91.85
37852;BME280;23691;52.486;4.650;2022-11-15T05:50:46;100614.97;;;9.82;91.75
37852;BME280;23691;52.486;4.650;2022-11-15T05:53:12;100617.50;;;9.83;91.79
37852;BME280;23691;52.486;4.650;2022-11-15T05:55:39;100620.97;;;9.84;91.92
37852;BME280;23691;52.486;4.650;2022-11-15T05:58:05;100614.47;;;9.86;91.92
37852;BME280;23691;52.486;4.650;2022-11-15T06:00:31;100607.97;;;9.89;92.22
37852;BME280;23691;52.486;4.650;2022-11-15T06:02:56;100611.16;;;9.93;92.32
37852;BME280;23691;52.486;4.650;2022-11-15T06:05:23;100622.34;;;9.96;92.27
37852;BME280;23691;52.486;4.650;2022-11-15T06:07:49;100624.03;;;9.97;92.35
37852;BME280;23691;52.486;4.650;2022-11-15T06:10:15;100623.69;;;10.00;92.44
37852;BME280;23691;52.486;4.650;2022-11-15T06:12:42;100629.72;;;10.02;92.91
37852;BME280;23691;52.486;4.650;2022-11-15T06:15:08;100631.56;;;10.02;92.48
37852;BME280;23691;52.486;4.650;2022-11-15T06:17:33;100631.38;;;10.03;92.67
37852;BME280;23691;52.486;4.650;2022-11-15T06:19:59;100632.19;;;10.04;92.73
37852;BME280;23691;52.486;4.650;2022-11-15T06:22:24;100629.38;;;10.05;92.70
37852;BME280;23691;52.486;4.650;2022-11-15T06:24:49;100635.19;;;10.09;93.25
37852;BME280;23691;52.486;4.650;2022-11-15T06:27:15;100629.03;;;10.08;92.96
37852;BME280;23691;52.486;4.650;2022-11-15T06:29:40;100636.06;;;10.09;93.10
37852;BME280;23691;52.486;4.650;2022-11-15T06:32:06;100641.41;;;10.09;93.03
37852;BME280;23691;52.486;4.650;2022-11-15T06:34:31;100637.88;;;10.09;92.95
37852;BME280;23691;52.486;4.650;2022-11-15T06:36:57;100637.03;;;10.08;93.52
37852;BME280;23691;52.486;4.650;2022-11-15T06:39:22;100639.03;;;10.06;93.23
37852;BME280;23691;52.486;4.650;2022-11-15T06:41:47;100644.38;;;10.06;93.21
37852;BME280;23691;52.486;4.650;2022-11-15T06:44:13;100644.72;;;10.03;93.35
37852;BME280;23691;52.486;4.650;2022-11-15T06:46:38;100644.91;;;10.02;93.27
37852;BME280;23691;52.486;4.650;2022-11-15T06:49:03;100642.25;;;10.02;93.45
37852;BME280;23691;52.486;4.650;2022-11-15T06:51:29;100641.38;;;10.01;93.39
37852;BME280;23691;52.486;4.650;2022-11-15T06:53:54;100649.41;;;10.01;93.13
37852;BME280;23691;52.486;4.650;2022-11-15T06:56:20;100657.41;;;10.01;93.51
37852;BME280;23691;52.486;4.650;2022-11-15T06:58:45;100646.56;;;10.03;93.47
37852;BME280;23691;52.486;4.650;2022-11-15T07:01:11;100651.09;;;10.02;93.30
37852;BME280;23691;52.486;4.650;2022-11-15T07:03:39;100652.75;;;10.03;93.29
37852;BME280;23691;52.486;4.650;2022-11-15T07:06:06;100651.91;;;10.03;93.45
37852;BME280;23691;52.486;4.650;2022-11-15T07:08:32;100662.59;;;10.03;93.21
37852;BME280;23691;52.486;4.650;2022-11-15T07:10:58;100667.81;;;10.04;93.54
37852;BME280;23691;52.486;4.650;2022-11-15T07:13:26;100669.63;;;10.04;93.41
37852;BME280;23691;52.486;4.650;2022-11-15T07:15:51;100664.13;;;10.05;93.40
37852;BME280;23691;52.486;4.650;2022-11-15T07:18:17;100662.28;;;10.06;93.29
37852;BME280;23691;52.486;4.650;2022-11-15T07:20:42;100661.44;;;10.05;93.24
37852;BME280;23691;52.486;4.650;2022-11-15T07:23:07;100664.28;;;10.04;93.23
37852;BME280;23691;52.486;4.650;2022-11-15T07:25:33;100665.28;;;10.03;93.37
37852;BME280;23691;52.486;4.650;2022-11-15T07:27:59;100659.94;;;10.03;93.41
37852;BME280;23691;52.486;4.650;2022-11-15T07:30:25;100661.59;;;10.04;93.29
37852;BME280;23691;52.486;4.650;2022-11-15T07:32:58;100654.44;;;10.04;93.41
37852;BME280;23691;52.486;4.650;2022-11-15T07:35:25;100657.94;;;10.05;93.35
37852;BME280;23691;52.486;4.650;2022-11-15T07:37:58;100655.09;;;10.06;93.34
37852;BME280;23691;52.486;4.650;2022-11-15T07:40:26;100647.06;;;10.06;93.27
37852;BME280;23691;52.486;4.650;2022-11-15T07:42:51;100649.59;;;10.08;93.23
37852;BME280;23691;52.486;4.650;2022-11-15T07:45:22;100649.44;;;10.09;93.19
37852;BME280;23691;52.486;4.650;2022-11-15T07:47:49;100651.75;;;10.13;93.14
37852;BME280;23691;52.486;4.650;2022-11-15T07:50:15;100639.91;;;10.15;92.90
37852;BME280;23691;52.486;4.650;2022-11-15T07:52:41;100638.72;;;10.18;93.10
37852;BME280;23691;52.486;4.650;2022-11-15T07:55:07;100641.88;;;10.21;93.13
37852;BME280;23691;52.486;4.650;2022-11-15T07:57:32;100640.41;;;10.27;93.11
37852;BME280;23691;52.486;4.650;2022-11-15T07:59:57;100642.78;;;10.30;92.94
37852;BME280;23691;52.486;4.650;2022-11-15T08:02:23;100636.41;;;10.31;93.03
37852;BME280;23691;52.486;4.650;2022-11-15T08:04:48;100629.72;;;10.35;92.96
37852;BME280;23691;52.486;4.650;2022-11-15T08:07:14;100638.06;;;10.40;93.10
37852;BME280;23691;52.486;4.650;2022-11-15T08:09:39;100635.91;;;10.44;92.90
37852;BME280;23691;52.486;4.650;2022-11-15T08:12:04;100633.72;;;10.47;92.91
37852;BME280;23691;52.486;4.650;2022-11-15T08:14:30;100634.25;;;10.51;92.71
37852;BME280;23691;52.486;4.650;2022-11-15T08:16:56;100643.78;;;10.53;92.77
37852;BME280;23691;52.486;4.650;2022-11-15T08:19:21;100644.75;;;10.52;92.91
37852;BME280;23691;52.486;4.650;2022-11-15T08:21:47;100639.59;;;10.51;92.90
37852;BME280;23691;52.486;4.650;2022-11-15T08:24:12;100633.72;;;10.47;92.75
37852;BME280;23691;52.486;4.650;2022-11-15T08:26:38;100635.56;;;10.47;93.14
37852;BME280;23691;52.486;4.650;2022-11-15T08:29:03;100628.53;;;10.46;92.83
37852;BME280;23691;52.486;4.650;2022-11-15T08:31:28;100617.84;;;10.46;92.88
37852;BME280;23691;52.486;4.650;2022-11-15T08:33:54;100620.50;;;10.46;92.81
37852;BME280;23691;52.486;4.650;2022-11-15T08:36:19;100611.66;;;10.45;92.71
37852;BME280;23691;52.486;4.650;2022-11-15T08:38:45;100609.81;;;10.46;92.73
37852;BME280;23691;52.486;4.650;2022-11-15T08:41:23;100610.69;;;10.46;92.47
37852;BME280;23691;52.486;4.650;2022-11-15T08:43:49;100609.50;;;10.49;92.57
37852;BME280;23691;52.486;4.650;2022-11-15T08:46:16;100610.16;;;10.51;92.54
37852;BME280;23691;52.486;4.650;2022-11-15T08:48:43;100606.13;;;10.55;92.15
37852;BME280;23691;52.486;4.650;2022-11-15T08:51:08;100603.97;;;10.59;92.16
37852;BME280;23691;52.486;4.650;2022-11-15T08:53:34;100602.44;;;10.64;92.28
37852;BME280;23691;52.486;4.650;2022-11-15T08:55:59;100594.72;;;10.69;91.96
37852;BME280;23691;52.486;4.650;2022-11-15T08:58:25;100604.09;;;10.73;91.98
37852;BME280;23691;52.486;4.650;2022-11-15T09:00:50;100608.75;;;10.80;91.73
37852;BME280;23691;52.486;4.650;2022-11-15T09:03:16;100609.06;;;10.85;91.56
37852;BME280;23691;52.486;4.650;2022-11-15T09:05:41;100605.88;;;10.89;91.53
37852;BME280;23691;52.486;4.650;2022-11-15T09:08:07;100593.47;;;10.96;91.50
37852;BME280;23691;52.486;4.650;2022-11-15T09:10:32;100605.31;;;11.02;90.99
37852;BME280;23691;52.486;4.650;2022-11-15T09:12:57;100602.97;;;11.07;91.09
37852;BME280;23691;52.486;4.650;2022-11-15T09:15:23;100597.75;;;11.14;91.04
37852;BME280;23691;52.486;4.650;2022-11-15T09:17:48;100601.56;;;11.20;90.76
37852;BME280;23691;52.486;4.650;2022-11-15T09:20:14;100593.00;;;11.24;90.75
37852;BME280;23691;52.486;4.650;2022-11-15T09:22:40;100587.81;;;11.31;90.42
37852;BME280;23691;52.486;4.650;2022-11-15T09:25:06;100590.44;;;11.39;90.49
37852;BME280;23691;52.486;4.650;2022-11-15T09:27:31;100591.41;;;11.46;90.30
37852;BME280;23691;52.486;4.650;2022-11-15T09:29:57;100595.88;;;11.54;90.18
37852;BME280;23691;52.486;4.650;2022-11-15T09:32:23;100593.50;;;11.59;89.93
37852;BME280;23691;52.486;4.650;2022-11-15T09:34:51;100595.47;;;11.65;89.87
37852;BME280;23691;52.486;4.650;2022-11-15T09:37:16;100600.97;;;11.72;89.37
37852;BME280;23691;52.486;4.650;2022-11-15T09:39:42;100602.25;;;11.76;88.91
37852;BME280;23691;52.486;4.650;2022-11-15T09:50:09;100597.94;;;11.98;88.43
37852;BME280;23691;52.486;4.650;2022-11-15T09:52:36;100597.78;;;11.99;88.23
37852;BME280;23691;52.486;4.650;2022-11-15T09:55:05;100596.22;;;12.05;87.95
37852;BME280;23691;52.486;4.650;2022-11-15T10:05:39;100592.03;;;12.02;86.78
37852;BME280;23691;52.486;4.650;2022-11-15T10:10:59;100590.84;;;12.05;86.10
37852;BME280;23691;52.486;4.650;2022-11-15T10:13:32;100589.84;;;12.06;85.79
37852;BME280;23691;52.486;4.650;2022-11-15T10:16:34;100580.25;;;12.12;85.47
37852;BME280;23691;52.486;4.650;2022-11-15T10:24:35;100565.28;;;12.17;84.40
37852;BME280;23691;52.486;4.650;2022-11-15T10:27:09;100559.06;;;12.17;84.03
37852;BME280;23691;52.486;4.650;2022-11-15T10:29:35;100556.41;;;12.17;83.69
37852;BME280;23691;52.486;4.650;2022-11-15T10:32:01;100540.97;;;12.19;83.67
37852;BME280;23691;52.486;4.650;2022-11-15T10:34:26;100540.75;;;12.20;83.19
37852;BME280;23691;52.486;4.650;2022-11-15T10:37:00;100529.19;;;12.20;82.78
37852;BME280;23691;52.486;4.650;2022-11-15T10:39:27;100527.19;;;12.22;82.60
37852;BME280;23691;52.486;4.650;2022-11-15T10:41:53;100525.16;;;12.24;82.53
37852;BME280;23691;52.486;4.650;2022-11-15T10:44:31;100522.25;;;12.25;82.19
37852;BME280;23691;52.486;4.650;2022-11-15T10:47:29;100518.75;;;12.25;82.15
37852;BME280;23691;52.486;4.650;2022-11-15T10:50:05;100527.34;;;12.20;81.82
37852;BME280;23691;52.486;4.650;2022-11-15T10:52:33;100511.47;;;12.19;81.50
37852;BME280;23691;52.486;4.650;2022-11-15T10:55:21;100516.06;;;12.25;81.35
37852;BME280;23691;52.486;4.650;2022-11-15T10:57:59;100511.19;;;12.29;81.09
37852;BME280;23691;52.486;4.650;2022-11-15T11:00:34;100506.66;;;12.29;80.94
37852;BME280;23691;52.486;4.650;2022-11-15T11:03:04;100509.63;;;12.34;80.64
37852;BME280;23691;52.486;4.650;2022-11-15T11:05:34;100507.22;;;12.39;80.60
37852;BME280;23691;52.486;4.650;2022-11-15T11:10:32;100510.81;;;12.46;80.34
37852;BME280;23691;52.486;4.650;2022-11-15T11:13:22;100497.69;;;12.52;80.27
37852;BME280;23691;52.486;4.650;2022-11-15T11:18:30;100496.38;;;12.48;79.87
37852;BME280;23691;52.486;4.650;2022-11-15T11:21:03;100499.66;;;12.43;80.02
37852;BME280;23691;52.486;4.650;2022-11-15T11:23:44;100495.28;;;12.42;79.61
37852;BME280;23691;52.486;4.650;2022-11-15T11:32:03;100484.09;;;12.38;79.29
37852;BME280;23691;52.486;4.650;2022-11-15T11:40:28;100465.97;;;12.40;78.59
37852;BME280;23691;52.486;4.650;2022-11-15T11:50:32;100434.19;;;12.59;77.57
37852;BME280;23691;52.486;4.650;2022-11-15T11:55:48;100419.19;;;12.64;77.25
37852;BME280;23691;52.486;4.650;2022-11-15T11:58:38;100419.00;;;12.66;77.01
37852;BME280;23691;52.486;4.650;2022-11-15T12:03:54;100415.38;;;12.74;76.78
37852;BME280;23691;52.486;4.650;2022-11-15T12:09:17;100416.28;;;12.81;76.13
37852;BME280;23691;52.486;4.650;2022-11-15T12:14:28;100390.53;;;12.86;75.88
37852;BME280;23691;52.486;4.650;2022-11-15T12:16:57;100396.72;;;12.87;75.92
37852;BME280;23691;52.486;4.650;2022-11-15T12:19:23;100391.34;;;12.87;75.76
37852;BME280;23691;52.486;4.650;2022-11-15T12:22:05;100380.81;;;12.85;75.53
37852;BME280;23691;52.486;4.650;2022-11-15T12:24:39;100380.63;;;12.87;75.54
37852;BME280;23691;52.486;4.650;2022-11-15T12:29:51;100370.72;;;12.87;74.81
37852;BME280;23691;52.486;4.650;2022-11-15T12:34:48;100366.13;;;12.81;74.68
37852;BME280;23691;52.486;4.650;2022-11-15T12:45:44;100352.19;;;12.71;74.56
37852;BME280;23691;52.486;4.650;2022-11-15T12:58:40;100340.44;;;12.57;74.48
37852;BME280;23691;52.486;4.650;2022-11-15T13:01:07;100325.38;;;12.56;74.43
37852;BME280;23691;52.486;4.650;2022-11-15T13:03:33;100328.06;;;12.56;74.43
37852;BME280;23691;52.486;4.650;2022-11-15T13:06:01;100333.25;;;12.58;74.47
37852;BME280;23691;52.486;4.650;2022-11-15T13:08:42;100319.63;;;12.59;74.33
37852;BME280;23691;52.486;4.650;2022-11-15T13:14:57;100304.59;;;12.65;74.15
37852;BME280;23691;52.486;4.650;2022-11-15T13:17:37;100296.56;;;12.65;74.13
37852;BME280;23691;52.486;4.650;2022-11-15T13:22:50;100294.53;;;12.67;74.01
37852;BME280;23691;52.486;4.650;2022-11-15T13:31:13;100276.19;;;12.71;73.67
37852;BME280;23691;52.486;4.650;2022-11-15T13:33:39;100273.50;;;12.71;73.64
37852;BME280;23691;52.486;4.650;2022-11-15T13:36:26;100259.69;;;12.74;73.54
37852;BME280;23691;52.486;4.650;2022-11-15T13:39:02;100256.38;;;12.72;73.52
37852;BME280;23691;52.486;4.650;2022-11-15T13:41:48;100259.06;;;12.72;73.34
37852;BME280;23691;52.486;4.650;2022-11-15T13:44:26;100249.34;;;12.71;73.38
37852;BME280;23691;52.486;4.650;2022-11-15T13:47:01;100249.16;;;12.72;73.00
37852;BME280;23691;52.486;4.650;2022-11-15T13:49:32;100259.88;;;12.72;72.93
37852;BME280;23691;52.486;4.650;2022-11-15T13:52:00;100244.81;;;12.71;72.94
37852;BME280;23691;52.486;4.650;2022-11-15T13:54:45;100246.47;;;12.72;72.72
37852;BME280;23691;52.486;4.650;2022-11-15T13:57:19;100238.41;;;12.72;72.68
37852;BME280;23691;52.486;4.650;2022-11-15T13:59:57;100239.06;;;12.74;72.53
37852;BME280;23691;52.486;4.650;2022-11-15T14:02:32;100245.06;;;12.76;72.28
37852;BME280;23691;52.486;4.650;2022-11-15T14:05:16;100223.59;;;12.76;71.93
37852;BME280;23691;52.486;4.650;2022-11-15T14:07:56;100225.63;;;12.74;72.26
37852;BME280;23691;52.486;4.650;2022-11-15T14:10:28;100220.25;;;12.74;71.82
37852;BME280;23691;52.486;4.650;2022-11-15T14:12:53;100215.09;;;12.73;71.99
37852;BME280;23691;52.486;4.650;2022-11-15T14:17:45;100195.22;;;12.67;71.77
37852;BME280;23691;52.486;4.650;2022-11-15T14:22:53;100189.22;;;12.65;71.61
37852;BME280;23691;52.486;4.650;2022-11-15T14:25:24;100185.91;;;12.63;71.76
37852;BME280;23691;52.486;4.650;2022-11-15T14:30:42;100176.75;;;12.57;71.47
37852;BME280;23691;52.486;4.650;2022-11-15T14:33:21;100176.34;;;12.54;71.31
37852;BME280;23691;52.486;4.650;2022-11-15T14:35:47;100167.66;;;12.52;71.33
37852;BME280;23691;52.486;4.650;2022-11-15T14:38:13;100164.72;;;12.46;71.17
37852;BME280;23691;52.486;4.650;2022-11-15T14:40:39;100163.91;;;12.46;71.17
37852;BME280;23691;52.486;4.650;2022-11-15T14:43:09;100162.22;;;12.45;71.12
37852;BME280;23691;52.486;4.650;2022-11-15T14:45:35;100154.16;;;12.45;71.32
37852;BME280;23691;52.486;4.650;2022-11-15T14:48:00;100162.22;;;12.45;71.30
37852;BME280;23691;52.486;4.650;2022-11-15T14:50:26;100152.34;;;12.45;71.30
37852;BME280;23691;52.486;4.650;2022-11-15T14:52:53;100152.34;;;12.45;71.35
37852;BME280;23691;52.486;4.650;2022-11-15T14:55:30;100148.81;;;12.45;71.33
37852;BME280;23691;52.486;4.650;2022-11-15T14:58:01;100154.38;;;12.43;71.29
37852;BME280;23691;52.486;4.650;2022-11-15T15:00:28;100134.97;;;12.41;71.16
37852;BME280;23691;52.486;4.650;2022-11-15T15:02:55;100137.00;;;12.39;71.24
37852;BME280;23691;52.486;4.650;2022-11-15T15:05:23;100134.72;;;12.36;71.26
37852;BME280;23691;52.486;4.650;2022-11-15T15:07:50;100125.19;;;12.34;71.05
37852;BME280;23691;52.486;4.650;2022-11-15T15:10:18;100114.88;;;12.31;70.81
37852;BME280;23691;52.486;4.650;2022-11-15T15:12:43;100113.19;;;12.30;71.00
37852;BME280;23691;52.486;4.650;2022-11-15T15:15:14;100111.31;;;12.30;71.06
37852;BME280;23691;52.486;4.650;2022-11-15T15:17:42;100109.03;;;12.27;71.07
37852;BME280;23691;52.486;4.650;2022-11-15T15:20:08;100100.34;;;12.25;71.15